createdAt,value
2022-10-01T00:04:44.975Z,12.99
2022-10-01T00:14:47.881Z,13.01
2022-10-01T00:24:50.881Z,13.08
2022-10-01T00:34:54.048Z,13.15
2022-10-01T00:44:57.930Z,13.18
2022-10-01T00:55:05.766Z,13.18
2022-10-01T01:05:13.730Z,13.12
2022-10-01T01:15:28.710Z,13.14
2022-10-01T01:25:48.270Z,13.16
2022-10-01T01:35:56.158Z,13.08
2022-10-01T01:46:01.844Z,13.11
2022-10-01T01:56:06.995Z,13.02
2022-10-01T02:06:26.292Z,13.09
2022-10-01T02:16:50.986Z,13.16
2022-10-01T02:26:56.120Z,13.18
2022-10-01T02:37:04.119Z,13.13
2022-10-01T02:47:14.310Z,13.05
2022-10-01T02:57:24.755Z,12.89
2022-10-01T03:07:30.312Z,12.90
2022-10-01T03:17:33.346Z,12.95
2022-10-01T03:27:36.268Z,12.89
2022-10-01T03:37:39.127Z,12.85
2022-10-01T03:47:42.208Z,13.01
2022-10-01T03:57:45.018Z,13.16
2022-10-01T04:07:48.623Z,13.16
2022-10-01T04:17:51.914Z,13.15
2022-10-01T04:28:03.537Z,13.14
2022-10-01T04:38:16.039Z,13.13
2022-10-01T04:48:19.099Z,13.12
2022-10-01T04:58:21.973Z,13.15
2022-10-01T05:08:24.923Z,13.19
2022-10-01T05:18:27.841Z,13.25
2022-10-01T05:28:31.105Z,13.23
2022-10-01T05:38:37.321Z,13.31
2022-10-01T05:48:40.260Z,13.25
2022-10-01T05:58:43.262Z,13.40
2022-10-01T06:08:46.941Z,13.44
2022-10-01T06:18:49.816Z,13.58
2022-10-01T06:28:52.852Z,13.62
2022-10-01T06:38:55.681Z,13.70
2022-10-01T06:48:58.589Z,13.95
2022-10-01T06:59:01.501Z,13.92
2022-10-01T07:09:04.485Z,14.21
2022-10-01T07:19:07.455Z,14.53
2022-10-01T07:29:10.906Z,14.77
2022-10-01T07:39:13.856Z,15.15
2022-10-01T07:49:16.943Z,15.43
2022-10-01T07:59:19.767Z,15.62
2022-10-01T08:09:22.975Z,15.52
2022-10-01T08:19:26.132Z,15.35
2022-10-01T08:29:28.934Z,15.39
2022-10-01T08:39:31.853Z,15.50
2022-10-01T08:49:44.781Z,15.89
2022-10-01T09:00:00.016Z,16.24
2022-10-01T09:10:09.785Z,16.77
2022-10-01T09:20:51.306Z,16.71
2022-10-01T09:30:56.839Z,16.68
2022-10-01T09:41:00.517Z,16.61
2022-10-01T09:51:16.566Z,16.82
2022-10-01T10:01:43.391Z,16.86
2022-10-01T10:11:46.397Z,16.95
2022-10-01T10:21:54.983Z,16.98
2022-10-01T10:32:25.330Z,16.79
2022-10-01T10:42:28.992Z,16.90
2022-10-01T10:52:33.861Z,16.73
2022-10-01T11:02:41.206Z,16.85
2022-10-01T11:13:03.020Z,16.88
2022-10-01T11:23:53.660Z,17.30
2022-10-01T11:34:37.894Z,17.69
2022-10-01T11:45:01.581Z,17.79
2022-10-01T11:55:42.489Z,17.67
2022-10-01T12:05:46.192Z,17.67
2022-10-01T12:15:58.795Z,17.72
2022-10-01T12:26:53.879Z,17.49
2022-10-01T12:37:13.813Z,17.73
2022-10-01T12:47:43.315Z,17.81
2022-10-01T12:58:17.688Z,18.31
2022-10-01T13:08:36.332Z,19.37
2022-10-01T13:19:12.838Z,18.48
2022-10-01T13:29:25.439Z,18.56
2022-10-01T13:39:36.636Z,18.63
2022-10-01T13:49:42.563Z,18.44
2022-10-01T13:59:45.682Z,18.39
2022-10-01T14:09:57.289Z,18.48
2022-10-01T14:20:01.488Z,18.78
2022-10-01T14:30:13.483Z,18.83
2022-10-01T14:40:22.655Z,18.75
2022-10-01T14:50:26.713Z,18.45
2022-10-01T15:00:32.480Z,18.20
2022-10-01T15:10:36.057Z,18.00
2022-10-01T15:20:38.988Z,17.92
2022-10-01T15:30:44.124Z,17.73
2022-10-01T15:41:01.827Z,17.55
2022-10-01T15:51:23.436Z,17.43
2022-10-01T16:01:30.021Z,17.18
2022-10-01T16:11:55.274Z,16.97
2022-10-01T16:22:18.811Z,16.77
2022-10-01T16:32:21.702Z,16.50
2022-10-01T16:42:24.792Z,16.22
2022-10-01T16:52:27.775Z,16.09
2022-10-01T17:02:30.685Z,15.89
2022-10-01T17:12:33.513Z,15.76
2022-10-01T17:22:37.358Z,15.54
2022-10-01T17:32:42.991Z,15.29
2022-10-01T17:42:46.174Z,15.21
2022-10-01T17:52:49.536Z,15.11
2022-10-01T18:02:52.546Z,14.93
2022-10-01T18:12:57.478Z,15.21
2022-10-01T18:23:00.308Z,15.35
2022-10-01T18:33:03.338Z,15.41
2022-10-01T18:43:22.208Z,15.51
2022-10-01T18:53:28.151Z,14.72
2022-10-01T19:04:33.065Z,14.87
2022-10-01T19:14:55.955Z,14.96
2022-10-01T19:25:11.499Z,15.09
2022-10-01T19:35:20.291Z,15.17
2022-10-01T19:45:33.689Z,15.16
2022-10-01T19:55:38.777Z,15.20
2022-10-01T20:05:53.360Z,15.22
2022-10-01T20:16:19.265Z,15.20
2022-10-01T20:26:39.902Z,15.05
2022-10-01T20:36:48.858Z,14.99
2022-10-01T20:46:58.434Z,14.77
2022-10-01T20:57:25.867Z,14.59
2022-10-01T21:07:38.443Z,14.45
2022-10-01T21:18:03.139Z,14.29
2022-10-01T21:28:15.078Z,14.12
2022-10-01T21:38:43.097Z,13.95
2022-10-01T21:48:49.175Z,13.89
2022-10-01T21:59:22.276Z,13.86
2022-10-01T22:10:08.068Z,13.74
2022-10-01T22:20:12.484Z,13.54
2022-10-01T22:30:24.559Z,13.38
2022-10-01T22:40:33.402Z,13.41
2022-10-01T22:50:45.256Z,13.39
2022-10-01T23:01:22.360Z,13.23
2022-10-01T23:11:25.222Z,13.16
2022-10-01T23:21:36.853Z,12.90
2022-10-01T23:31:50.479Z,12.76
2022-10-01T23:41:57.112Z,12.59
2022-10-01T23:52:19.015Z,12.47
